createdAt,value
2023-01-21T00:02:44.755Z,-26.76
2023-01-21T00:05:48.558Z,-26.18
2023-01-21T00:08:57.746Z,-25.15
2023-01-21T00:12:03.924Z,-24.20
2023-01-21T00:15:08.609Z,-24.85
2023-01-21T00:18:20.486Z,-23.52
2023-01-21T00:21:38.518Z,-23.91
2023-01-21T00:25:00.686Z,-22.92
2023-01-21T00:28:04.612Z,-22.17
2023-01-21T00:31:08.483Z,-21.84
2023-01-21T00:34:12.602Z,-21.61
2023-01-21T00:37:16.087Z,-22.11
2023-01-21T00:40:20.394Z,-21.97
2023-01-21T00:43:23.661Z,-20.70
2023-01-21T00:46:28.387Z,-19.65
2023-01-21T00:49:32.551Z,-18.87
2023-01-21T00:52:39.789Z,-18.31
2023-01-21T00:55:46.585Z,-18.84
2023-01-21T00:58:50.498Z,-19.87
2023-01-21T01:01:54.300Z,-18.96
2023-01-21T01:05:00.735Z,-19.83
2023-01-21T01:08:06.499Z,-19.55
2023-01-21T01:11:10.625Z,-19.52
2023-01-21T01:14:14.382Z,-17.84
2023-01-21T01:17:18.056Z,-18.06
2023-01-21T01:20:21.460Z,-18.14
2023-01-21T01:23:25.334Z,-17.87
2023-01-21T01:26:29.260Z,-18.11
2023-01-21T01:29:35.387Z,-19.24
2023-01-21T01:32:41.847Z,-18.24
2023-01-21T01:35:47.811Z,-18.25
2023-01-21T01:38:51.888Z,-17.94
2023-01-21T01:41:55.917Z,-16.91
2023-01-21T01:45:01.193Z,-17.90
2023-01-21T01:48:08.862Z,-19.46
2023-01-21T01:51:14.150Z,-17.93
2023-01-21T01:54:20.067Z,-17.79
2023-01-21T01:57:25.288Z,-18.05
2023-01-21T02:00:28.668Z,-18.20
2023-01-21T02:03:47.062Z,-18.45
2023-01-21T02:06:51.868Z,-19.30
2023-01-21T02:09:58.294Z,-20.19
2023-01-21T02:13:02.434Z,-20.46
2023-01-21T02:16:09.864Z,-19.79
2023-01-21T02:19:13.354Z,-20.58
2023-01-21T02:22:16.821Z,-20.78
2023-01-21T02:25:41.358Z,-20.17
2023-01-21T02:28:57.347Z,-20.14
2023-01-21T02:32:19.035Z,-20.13
2023-01-21T02:35:31.959Z,-20.45
2023-01-21T02:38:45.975Z,-20.24
2023-01-21T02:41:52.169Z,-20.22
2023-01-21T02:45:16.255Z,-20.28
2023-01-21T02:48:41.021Z,-20.18
2023-01-21T02:51:48.974Z,-20.73
2023-01-21T02:54:54.385Z,-19.99
2023-01-21T02:58:01.229Z,-21.17
2023-01-21T03:01:26.537Z,-21.58
2023-01-21T03:04:36.488Z,-21.59
2023-01-21T03:07:47.649Z,-21.49
2023-01-21T03:11:04.408Z,-21.03
2023-01-21T03:14:48.203Z,-21.37
2023-01-21T03:18:02.090Z,-21.82
2023-01-21T03:21:08.412Z,-21.11
2023-01-21T03:24:14.055Z,-21.79
2023-01-21T03:27:19.312Z,-21.71
2023-01-21T03:30:25.226Z,-22.69
2023-01-21T03:33:30.959Z,-22.75
2023-01-21T03:36:39.012Z,-22.04
2023-01-21T03:39:43.300Z,-21.93
2023-01-21T03:42:48.304Z,-22.36
2023-01-21T03:46:10.277Z,-22.52
2023-01-21T03:49:17.302Z,-22.61
2023-01-21T03:52:22.676Z,-22.52
2023-01-21T03:55:26.474Z,-22.41
2023-01-21T03:58:34.902Z,-22.59
2023-01-21T04:01:42.693Z,-21.67
2023-01-21T04:04:47.856Z,-22.48
2023-01-21T04:07:51.283Z,-21.74
2023-01-21T04:10:57.570Z,-21.68
2023-01-21T04:14:01.278Z,-21.78
2023-01-21T04:17:05.645Z,-21.62
2023-01-21T04:20:10.293Z,-21.68
2023-01-21T04:23:13.547Z,-22.05
2023-01-21T04:26:17.368Z,-21.86
2023-01-21T04:29:21.311Z,-21.35
2023-01-21T04:32:24.998Z,-21.15
2023-01-21T04:35:28.767Z,-21.29
2023-01-21T04:38:32.390Z,-21.41
2023-01-21T04:41:35.819Z,-20.83
2023-01-21T04:44:40.132Z,-21.37
2023-01-21T04:47:44.718Z,-21.42
2023-01-21T04:50:48.642Z,-21.97
2023-01-21T04:53:52.239Z,-22.25
2023-01-21T04:56:56.075Z,-21.91
2023-01-21T05:00:00.034Z,-21.27
2023-01-21T05:03:03.699Z,-22.01
2023-01-21T05:06:07.508Z,-21.67
2023-01-21T05:09:12.307Z,-21.41
2023-01-21T05:12:15.775Z,-21.89
2023-01-21T05:15:20.148Z,-22.20
2023-01-21T05:18:25.124Z,-21.81
2023-01-21T05:21:29.966Z,-21.57
2023-01-21T05:24:33.420Z,-21.56
2023-01-21T05:27:37.827Z,-22.01
2023-01-21T05:30:43.924Z,-22.20
2023-01-21T05:33:48.745Z,-21.77
2023-01-21T05:36:52.583Z,-21.50
2023-01-21T05:39:56.258Z,-21.68
2023-01-21T05:42:59.912Z,-21.75
2023-01-21T05:46:03.421Z,-22.04
2023-01-21T05:49:07.806Z,-22.21
2023-01-21T05:52:11.905Z,-22.12
2023-01-21T05:55:15.805Z,-22.09
2023-01-21T05:58:19.199Z,-21.82
2023-01-21T06:01:23.226Z,-21.48
2023-01-21T06:04:31.208Z,-21.82
2023-01-21T06:07:34.776Z,-21.82
2023-01-21T06:10:39.129Z,-21.66
2023-01-21T06:13:42.798Z,-21.66
2023-01-21T06:16:46.115Z,-21.82
2023-01-21T06:19:49.422Z,-21.68
2023-01-21T06:22:53.260Z,-21.55
2023-01-21T06:26:04.738Z,-21.63
2023-01-21T06:29:08.629Z,-21.40
2023-01-21T06:32:12.028Z,-21.52
2023-01-21T06:52:50.815Z,-21.70
2023-01-21T06:55:54.976Z,-21.62
2023-01-21T06:59:00.045Z,-21.89
2023-01-21T07:02:09.405Z,-21.74
2023-01-21T07:09:05.872Z,-22.02
2023-01-21T07:12:17.347Z,-22.25
2023-01-21T07:15:21.448Z,-22.15
2023-01-21T07:18:26.496Z,-22.02
2023-01-21T07:21:31.139Z,-22.05
2023-01-21T07:24:38.670Z,-22.28
2023-01-21T07:27:44.497Z,-22.64
2023-01-21T07:34:26.384Z,-22.90
2023-01-21T07:37:30.163Z,-23.28
2023-01-21T07:40:34.389Z,-23.24
2023-01-21T07:43:38.340Z,-23.52
2023-01-21T07:47:00.112Z,-23.83
2023-01-21T07:50:12.804Z,-24.19
2023-01-21T07:53:16.888Z,-24.09
2023-01-21T07:56:21.173Z,-24.03
2023-01-21T07:59:40.533Z,-24.49
2023-01-21T08:02:45.597Z,-24.64
2023-01-21T08:06:02.385Z,-24.60
2023-01-21T08:09:06.100Z,-24.66
2023-01-21T08:12:10.137Z,-24.67
2023-01-21T08:15:14.121Z,-24.71
2023-01-21T08:18:18.600Z,-24.95
2023-01-21T08:21:26.311Z,-24.97
2023-01-21T08:24:31.601Z,-24.86
2023-01-21T08:27:37.006Z,-24.87
2023-01-21T08:30:41.152Z,-25.00
2023-01-21T08:33:48.512Z,-24.97
2023-01-21T08:36:52.869Z,-25.03
2023-01-21T08:39:56.940Z,-24.96
2023-01-21T08:43:04.290Z,-24.83
2023-01-21T08:46:08.543Z,-25.02
2023-01-21T08:49:15.809Z,-25.58
2023-01-21T08:52:21.553Z,-25.73
2023-01-21T08:55:28.069Z,-26.06
2023-01-21T08:58:32.795Z,-26.23
2023-01-21T09:01:38.789Z,-26.49
2023-01-21T09:04:43.091Z,-26.20
2023-01-21T09:07:49.337Z,-25.87
2023-01-21T09:11:02.705Z,-25.74
2023-01-21T09:14:07.637Z,-26.08
2023-01-21T09:17:11.978Z,-26.42
2023-01-21T09:20:16.083Z,-26.41
2023-01-21T09:23:26.468Z,-26.47
2023-01-21T09:26:30.900Z,-26.16
2023-01-21T09:29:35.259Z,-26.38
2023-01-21T09:32:39.330Z,-26.18
2023-01-21T09:35:43.631Z,-26.13
2023-01-21T09:38:48.209Z,-27.39
2023-01-21T09:41:56.417Z,-26.93
2023-01-21T09:45:02.086Z,-26.45
2023-01-21T09:48:08.304Z,-26.66
2023-01-21T09:51:35.153Z,-26.64
2023-01-21T09:54:40.445Z,-26.88
2023-01-21T09:58:01.132Z,-26.87
2023-01-21T10:01:14.827Z,-26.86
2023-01-21T10:04:25.229Z,-26.64
2023-01-21T10:07:35.893Z,-26.62
2023-01-21T10:10:49.032Z,-26.87
2023-01-21T10:14:11.694Z,-27.05
2023-01-21T10:17:16.194Z,-27.61
2023-01-21T10:20:23.273Z,-27.64
2023-01-21T10:23:33.541Z,-27.60
2023-01-21T10:26:37.782Z,-27.34
2023-01-21T10:29:44.514Z,-28.23
2023-01-21T10:32:51.458Z,-28.14
2023-01-21T10:36:21.884Z,-28.71
2023-01-21T10:40:00.896Z,-27.95
2023-01-21T10:43:07.102Z,-28.10
2023-01-21T10:46:16.079Z,-28.67
2023-01-21T10:49:24.947Z,-28.92
2023-01-21T10:52:35.180Z,-29.17
2023-01-21T10:55:46.072Z,-29.35
2023-01-21T10:58:55.764Z,-29.27
2023-01-21T11:02:12.398Z,-29.08
2023-01-21T11:05:16.880Z,-29.15
2023-01-21T11:08:27.587Z,-28.83
2023-01-21T11:11:33.422Z,-28.86
2023-01-21T11:14:37.590Z,-28.61
2023-01-21T11:17:42.778Z,-29.07
2023-01-21T11:20:47.809Z,-29.37
2023-01-21T11:24:02.174Z,-29.67
2023-01-21T11:27:06.388Z,-29.38
2023-01-21T11:30:44.530Z,-29.17
2023-01-21T11:33:53.896Z,-29.29
2023-01-21T11:37:05.440Z,-29.06
2023-01-21T11:40:25.504Z,-29.01
2023-01-21T11:43:37.429Z,-28.99
2023-01-21T11:46:44.785Z,-29.30
2023-01-21T11:49:49.258Z,-29.51
2023-01-21T11:53:13.884Z,-29.27
2023-01-21T11:56:17.926Z,-30.13
2023-01-21T11:59:21.761Z,-29.92
2023-01-21T12:02:32.413Z,-30.13
2023-01-21T12:05:40.437Z,-30.42
2023-01-21T12:08:44.800Z,-30.38
2023-01-21T12:12:06.557Z,-30.20
2023-01-21T12:15:27.359Z,-29.99
2023-01-21T12:18:31.508Z,-30.19
2023-01-21T12:21:43.576Z,-29.96
2023-01-21T12:25:14.320Z,-29.80
2023-01-21T12:28:18.316Z,-29.83
2023-01-21T12:31:33.258Z,-29.77
2023-01-21T12:34:59.067Z,-29.98
2023-01-21T12:38:10.010Z,-29.88
2023-01-21T12:41:14.079Z,-29.69
2023-01-21T12:44:37.550Z,-30.16
2023-01-21T12:48:01.746Z,-30.60
2023-01-21T12:51:12.745Z,-30.49
2023-01-21T12:54:16.932Z,-30.96
2023-01-21T12:57:29.037Z,-30.27
2023-01-21T13:00:36.196Z,-30.66
2023-01-21T13:03:59.364Z,-30.70
2023-01-21T13:07:03.226Z,-30.77
2023-01-21T13:10:10.392Z,-30.23
2023-01-21T13:13:15.274Z,-30.18
2023-01-21T13:16:27.675Z,-30.68
2023-01-21T13:19:31.829Z,-30.63
2023-01-21T13:22:44.391Z,-30.38
2023-01-21T13:25:57.698Z,-30.26
2023-01-21T13:29:16.594Z,-29.85
2023-01-21T13:32:26.411Z,-30.00
2023-01-21T13:35:35.474Z,-29.97
2023-01-21T13:38:39.206Z,-29.53
2023-01-21T13:41:43.208Z,-29.50
2023-01-21T13:44:55.475Z,-29.41
2023-01-21T13:48:02.887Z,-29.62
2023-01-21T13:51:30.024Z,-29.80
2023-01-21T13:54:44.703Z,-29.94
2023-01-21T13:57:48.751Z,-30.04
2023-01-21T14:00:58.403Z,-29.99
2023-01-21T14:04:14.589Z,-30.36
2023-01-21T14:07:41.444Z,-30.31
2023-01-21T14:10:58.901Z,-30.14
2023-01-21T14:14:09.058Z,-29.74
2023-01-21T14:17:38.317Z,-29.32
2023-01-21T14:20:59.919Z,-29.83
2023-01-21T14:24:15.688Z,-29.79
2023-01-21T14:27:23.778Z,-30.73
2023-01-21T14:30:38.740Z,-31.05
2023-01-21T14:33:47.979Z,-30.79
2023-01-21T14:36:52.065Z,-30.77
2023-01-21T14:39:56.065Z,-30.93
2023-01-21T14:43:05.484Z,-31.55
2023-01-21T14:46:18.644Z,-31.89
2023-01-21T14:49:40.156Z,-31.59
2023-01-21T14:52:45.628Z,-31.47
2023-01-21T14:56:06.941Z,-31.37
2023-01-21T14:59:36.205Z,-31.33
2023-01-21T15:02:45.482Z,-31.69
2023-01-21T15:05:51.892Z,-31.89
2023-01-21T15:09:00.923Z,-31.67
2023-01-21T15:12:08.259Z,-31.61
2023-01-21T15:15:35.021Z,-31.86
2023-01-21T15:18:40.788Z,-31.62
2023-01-21T15:21:46.458Z,-31.27
2023-01-21T15:25:03.895Z,-31.25
2023-01-21T15:28:29.302Z,-31.13
2023-01-21T15:31:44.319Z,-30.82
2023-01-21T15:34:50.015Z,-31.05
2023-01-21T15:38:05.018Z,-31.10
2023-01-21T15:41:21.613Z,-30.86
2023-01-21T15:44:42.181Z,-30.88
2023-01-21T15:47:52.895Z,-31.34
2023-01-21T15:51:14.672Z,-31.10
2023-01-21T15:54:27.827Z,-31.32
2023-01-21T15:57:43.483Z,-31.27
2023-01-21T16:00:54.268Z,-31.40
2023-01-21T16:04:03.748Z,-30.92
2023-01-21T16:07:26.261Z,-31.21
2023-01-21T16:10:32.363Z,-31.29
2023-01-21T16:13:46.774Z,-31.68
2023-01-21T16:17:01.212Z,-32.06
2023-01-21T16:20:06.897Z,-31.97
2023-01-21T16:23:10.681Z,-31.52
2023-01-21T16:26:24.429Z,-31.60
2023-01-21T16:29:28.643Z,-31.07
2023-01-21T16:32:33.376Z,-30.93
2023-01-21T16:35:47.153Z,-30.96
2023-01-21T16:38:51.280Z,-31.06
2023-01-21T16:42:05.590Z,-30.97
2023-01-21T16:45:17.458Z,-30.95
2023-01-21T16:48:23.366Z,-30.79
2023-01-21T16:51:30.235Z,-31.08
2023-01-21T16:54:34.630Z,-31.39
2023-01-21T16:57:59.638Z,-31.19
2023-01-21T17:01:06.709Z,-31.02
2023-01-21T17:04:10.601Z,-31.02
2023-01-21T17:07:21.492Z,-31.14
2023-01-21T17:10:35.218Z,-31.16
2023-01-21T17:13:42.543Z,-30.89
2023-01-21T17:16:46.828Z,-30.91
2023-01-21T17:19:51.332Z,-30.99
2023-01-21T17:22:55.067Z,-31.14
2023-01-21T17:26:03.447Z,-31.16
2023-01-21T17:29:19.783Z,-31.00
2023-01-21T17:32:28.912Z,-30.89
2023-01-21T17:35:40.751Z,-31.61
2023-01-21T17:38:50.388Z,-31.80
2023-01-21T17:42:05.449Z,-31.30
2023-01-21T17:45:17.851Z,-31.00
2023-01-21T17:48:28.458Z,-30.87
2023-01-21T17:51:34.781Z,-30.69
2023-01-21T17:54:38.931Z,-31.48
2023-01-21T17:57:45.916Z,-32.44
2023-01-21T18:00:51.404Z,-32.24
2023-01-21T18:03:57.933Z,-31.55
2023-01-21T18:07:03.833Z,-31.20
2023-01-21T18:10:13.777Z,-31.28
2023-01-21T18:13:19.193Z,-31.20
2023-01-21T18:16:23.891Z,-31.13
2023-01-21T18:19:32.070Z,-30.83
2023-01-21T18:22:36.890Z,-30.96
2023-01-21T18:25:43.500Z,-31.27
2023-01-21T18:28:47.627Z,-31.46
2023-01-21T18:31:55.599Z,-31.41
2023-01-21T18:35:00.712Z,-31.25
2023-01-21T18:38:11.299Z,-31.08
2023-01-21T18:41:15.494Z,-31.27
2023-01-21T18:44:23.996Z,-31.31
2023-01-21T18:47:28.028Z,-31.42
2023-01-21T18:50:32.467Z,-31.55
2023-01-21T18:53:36.596Z,-31.34
2023-01-21T18:56:43.260Z,-31.19
2023-01-21T18:59:47.460Z,-31.32
2023-01-21T19:02:57.474Z,-31.53
2023-01-21T19:06:06.434Z,-31.46
2023-01-21T19:09:36.528Z,-31.56
2023-01-21T19:12:42.151Z,-31.69
2023-01-21T19:15:46.659Z,-31.45
2023-01-21T19:18:50.189Z,-31.46
2023-01-21T19:22:01.012Z,-31.03
2023-01-21T19:25:08.382Z,-31.22
2023-01-21T19:28:13.447Z,-31.15
2023-01-21T19:31:20.524Z,-31.33
2023-01-21T19:34:27.010Z,-31.32
2023-01-21T19:37:32.821Z,-31.39
2023-01-21T19:40:39.045Z,-31.50
2023-01-21T19:43:43.023Z,-31.46
2023-01-21T19:46:52.228Z,-31.16
2023-01-21T19:49:56.547Z,-31.25
2023-01-21T19:53:00.701Z,-31.32
2023-01-21T19:56:06.318Z,-31.57
2023-01-21T19:59:15.598Z,-31.58
2023-01-21T20:02:22.678Z,-31.47
2023-01-21T20:05:28.930Z,-31.43
2023-01-21T20:08:36.959Z,-31.59
2023-01-21T20:11:41.052Z,-31.55
2023-01-21T20:14:47.146Z,-31.53
2023-01-21T20:17:53.549Z,-31.61
2023-01-21T20:20:57.350Z,-31.87
2023-01-21T20:24:01.248Z,-31.67
2023-01-21T20:27:08.573Z,-31.79
2023-01-21T20:30:24.776Z,-32.01
2023-01-21T20:33:28.871Z,-31.90
2023-01-21T20:36:32.889Z,-31.85
2023-01-21T20:39:37.079Z,-32.08
2023-01-21T20:42:41.082Z,-31.72
2023-01-21T20:45:49.232Z,-32.07
2023-01-21T20:48:53.509Z,-32.22
2023-01-21T20:52:02.222Z,-32.76
2023-01-21T20:55:09.264Z,-32.55
2023-01-21T20:58:17.651Z,-32.63
2023-01-21T21:01:23.237Z,-32.39
2023-01-21T21:04:31.772Z,-32.68
2023-01-21T21:07:35.848Z,-32.82
2023-01-21T21:10:40.394Z,-32.35
2023-01-21T21:13:48.842Z,-31.88
2023-01-21T21:16:55.207Z,-31.67
2023-01-21T21:19:58.796Z,-31.70
2023-01-21T21:23:02.732Z,-32.34
2023-01-21T21:26:12.318Z,-32.29
2023-01-21T21:29:18.861Z,-32.76
2023-01-21T21:32:22.973Z,-32.62
2023-01-21T21:35:38.527Z,-32.59
2023-01-21T21:38:42.294Z,-32.74
2023-01-21T21:42:05.000Z,-33.17
2023-01-21T21:45:15.125Z,-33.16
2023-01-21T21:48:40.369Z,-32.94
2023-01-21T21:51:50.379Z,-33.11
2023-01-21T21:54:57.852Z,-33.15
2023-01-21T21:58:02.071Z,-33.32
2023-01-21T22:01:13.869Z,-33.44
2023-01-21T22:04:17.982Z,-33.61
2023-01-21T22:07:22.389Z,-33.57
2023-01-21T22:10:26.182Z,-33.76
2023-01-21T22:13:30.241Z,-33.59
2023-01-21T22:16:46.096Z,-33.55
2023-01-21T22:19:50.138Z,-33.72
2023-01-21T22:22:54.046Z,-34.11
2023-01-21T22:25:58.688Z,-34.14
2023-01-21T22:29:03.600Z,-34.13
2023-01-21T22:32:17.264Z,-34.16
2023-01-21T22:35:23.921Z,-34.21
2023-01-21T22:38:32.843Z,-34.29
2023-01-21T22:41:36.621Z,-34.20
2023-01-21T22:44:43.507Z,-34.05
2023-01-21T22:47:56.519Z,-33.56
2023-01-21T22:51:07.715Z,-33.11
2023-01-21T22:54:12.170Z,-33.18
2023-01-21T22:57:16.162Z,-33.64
2023-01-21T23:00:34.403Z,-33.38
2023-01-21T23:03:39.853Z,-33.06
2023-01-21T23:06:51.486Z,-33.31
2023-01-21T23:09:56.184Z,-33.38
2023-01-21T23:13:06.317Z,-33.21
2023-01-21T23:16:11.229Z,-33.49
2023-01-21T23:19:15.726Z,-33.40
2023-01-21T23:22:22.915Z,-33.35
2023-01-21T23:25:29.230Z,-32.90
2023-01-21T23:28:34.266Z,-33.15
2023-01-21T23:31:40.801Z,-33.02
2023-01-21T23:34:47.705Z,-32.68
2023-01-21T23:37:55.235Z,-32.24
2023-01-21T23:41:02.200Z,-32.26
2023-01-21T23:44:06.474Z,-32.24
2023-01-21T23:47:11.075Z,-31.74
2023-01-21T23:50:15.562Z,-31.80
2023-01-21T23:53:36.107Z,-31.62
2023-01-21T23:56:43.123Z,-31.38
2023-01-21T23:59:47.527Z,-31.18
